Time;durP1;ratioP1;P1;durP2;ratioP2;P2;SDS_P1;SDS_P2;PMS_P1;PMS_P2;Temp;Humidity;BMP_temperature;BMP_pressure;BME280_temperature;BME280_humidity;BME280_pressure;Samples;Min_cycle;Max_cycle;Signal;HPM_P1;HPM_P2
2023/03/19 00:00:37;;;;;;;7.60;4.78;;;;;;;14.92;35.80;100641.22;5075886;28;20386;-65
2023/03/19 00:03:05;;;;;;;6.53;4.30;;;;;;;14.89;35.91;100640.47;5076719;28;20044;-65
2023/03/19 00:05:34;;;;;;;6.40;4.93;;;;;;;14.88;35.78;100640.59;5075910;28;20049;-66
2023/03/19 00:08:02;;;;;;;7.65;4.82;;;;;;;14.87;35.92;100633.50;5076128;28;20076;-65
2023/03/19 00:10:31;;;;;;;6.25;4.00;;;;;;;14.84;35.93;100626.50;5076181;28;20045;-65
2023/03/19 00:12:59;;;;;;;7.55;4.47;;;;;;;14.85;35.92;100630.06;5076555;28;20479;-65
2023/03/19 00:15:27;;;;;;;7.13;4.55;;;;;;;14.82;35.77;100625.78;5075052;28;20461;-65
2023/03/19 00:17:57;;;;;;;6.97;4.72;;;;;;;14.77;35.93;100625.25;5074362;28;20054;-65
2023/03/19 00:20:25;;;;;;;7.57;4.82;;;;;;;14.78;35.91;100637.72;5074358;28;20465;-65
2023/03/19 00:22:53;;;;;;;6.97;4.50;;;;;;;14.76;35.99;100634.25;5074477;28;20136;-65
2023/03/19 00:25:21;;;;;;;6.72;4.07;;;;;;;14.76;35.91;100625.34;5074382;28;20675;-66
2023/03/19 00:27:51;;;;;;;5.80;4.13;;;;;;;14.75;35.94;100629.84;5073949;28;20072;-66
2023/03/19 00:30:20;;;;;;;6.55;4.32;;;;;;;14.73;35.86;100620.19;5074062;28;20049;-66
2023/03/19 00:32:48;;;;;;;6.43;3.88;;;;;;;14.73;35.98;100618.38;5073796;28;20478;-66
2023/03/19 00:35:18;;;;;;;6.90;4.78;;;;;;;14.70;35.90;100613.22;5073922;28;20059;-65
2023/03/19 00:37:46;;;;;;;6.57;4.60;;;;;;;14.70;35.90;100615.91;5073775;28;20044;-65
2023/03/19 00:40:14;;;;;;;6.65;4.60;;;;;;;14.68;35.85;100609.81;5073507;28;20139;-65
2023/03/19 00:42:43;;;;;;;6.38;4.70;;;;;;;14.67;35.93;100612.56;5073608;28;20051;-65
2023/03/19 00:45:12;;;;;;;6.32;4.35;;;;;;;14.64;35.93;100605.59;5073440;28;20072;-65
2023/03/19 00:47:41;;;;;;;6.03;4.18;;;;;;;14.64;35.88;100605.59;5073551;28;20136;-66
2023/03/19 00:50:10;;;;;;;7.07;4.95;;;;;;;14.60;36.01;100610.34;5073560;28;20283;-66
2023/03/19 00:52:40;;;;;;;6.15;4.15;;;;;;;14.63;35.90;100609.25;5073347;28;20044;-66
2023/03/19 00:55:08;;;;;;;6.13;4.50;;;;;;;14.61;35.84;100605.84;5073362;28;20045;-66
2023/03/19 00:57:36;;;;;;;6.38;4.00;;;;;;;14.58;35.80;100611.44;5073501;28;20070;-65
2023/03/19 01:00:07;;;;;;;6.88;4.60;;;;;;;14.57;35.95;100598.94;5073446;28;20394;-64
2023/03/19 01:02:35;;;;;;;7.63;4.70;;;;;;;14.56;35.94;100597.25;5073084;28;20405;-65
2023/03/19 01:05:04;;;;;;;6.72;4.50;;;;;;;14.53;36.04;100594.78;5072795;28;20397;-65
2023/03/19 01:07:32;;;;;;;6.63;4.45;;;;;;;14.53;35.98;100600.16;5072792;28;20048;-65
2023/03/19 01:10:02;;;;;;;6.85;4.20;;;;;;;14.51;35.90;100602.09;5072998;28;20498;-65
2023/03/19 01:12:30;;;;;;;6.72;4.30;;;;;;;14.48;36.00;100600.50;5073017;28;20048;-65
2023/03/19 01:14:58;;;;;;;6.47;4.70;;;;;;;14.48;35.83;100605.84;5073037;28;20135;-65
2023/03/19 01:17:27;;;;;;;7.18;4.30;;;;;;;14.48;35.95;100607.69;5072865;28;20500;-65
2023/03/19 01:19:55;;;;;;;7.07;4.70;;;;;;;14.46;35.93;100606.91;5072775;28;20052;-64
2023/03/19 01:22:23;;;;;;;7.85;4.72;;;;;;;14.44;35.97;100609.66;5072810;28;20048;-66
2023/03/19 01:24:51;;;;;;;6.40;4.30;;;;;;;14.44;35.93;100611.50;5072672;28;20075;-66
2023/03/19 01:27:21;;;;;;;7.20;4.47;;;;;;;14.43;36.02;100607.09;5072642;28;20044;-66
2023/03/19 01:29:50;;;;;;;6.57;4.20;;;;;;;14.41;35.91;100609.91;5072506;28;20044;-65
2023/03/19 01:32:19;;;;;;;6.97;4.78;;;;;;;14.40;35.87;100601.97;5072500;28;20040;-66
2023/03/19 01:34:47;;;;;;;7.05;4.70;;;;;;;14.39;36.05;100605.63;5072611;28;20115;-64
2023/03/19 01:37:15;;;;;;;6.38;4.53;;;;;;;14.37;36.05;100610.22;5072533;28;20059;-65
2023/03/19 01:39:44;;;;;;;7.32;4.50;;;;;;;14.36;36.05;100613.84;5072378;28;20064;-65
2023/03/19 01:42:13;;;;;;;5.85;4.18;;;;;;;14.33;35.99;100607.75;5072598;28;20109;-65
2023/03/19 01:44:43;;;;;;;6.40;4.40;;;;;;;14.31;35.88;100598.94;5072297;28;20068;-65
2023/03/19 01:47:18;;;;;;;6.97;4.80;;;;;;;14.31;35.94;100609.69;5072111;28;20393;-67
2023/03/19 01:49:52;;;;;;;5.82;4.05;;;;;;;14.30;36.02;100602.59;5072244;28;20398;-67
2023/03/19 01:52:24;;;;;;;6.47;4.47;;;;;;;14.29;36.12;100606.25;5072244;28;20502;-66
2023/03/19 01:54:59;;;;;;;6.15;4.20;;;;;;;14.27;36.06;100610.84;5072510;28;20076;-67
2023/03/19 01:57:29;;;;;;;6.55;4.40;;;;;;;14.25;35.97;100610.09;5072121;28;20541;-65
2023/03/19 02:00:02;;;;;;;6.28;3.95;;;;;;;14.24;36.03;100619.13;5072420;28;20079;-65
2023/03/19 02:02:32;;;;;;;6.50;4.43;;;;;;;14.23;36.02;100617.41;5072261;28;20446;-65
2023/03/19 02:05:04;;;;;;;5.80;3.65;;;;;;;14.22;36.07;100604.97;5072256;28;20055;-64
2023/03/19 02:07:34;;;;;;;6.82;4.38;;;;;;;14.24;36.24;100608.38;5072121;28;20048;-65
2023/03/19 02:10:07;;;;;;;6.15;4.40;;;;;;;14.27;36.09;100605.47;5072034;28;20048;-64
2023/03/19 02:12:35;;;;;;;6.55;4.45;;;;;;;14.33;36.27;100604.22;5072055;28;20397;-65
2023/03/19 02:15:06;;;;;;;6.00;4.30;;;;;;;14.43;36.16;100601.72;5071836;28;20049;-65
2023/03/19 02:17:34;;;;;;;5.88;3.90;;;;;;;14.53;36.20;100597.47;5071773;28;20091;-64
2023/03/19 02:20:08;;;;;;;6.35;4.20;;;;;;;14.66;35.96;100609.03;5071791;28;20444;-65
2023/03/19 02:22:41;;;;;;;6.10;4.40;;;;;;;14.79;36.04;100609.88;5071972;28;20049;-65
2023/03/19 02:25:14;;;;;;;6.30;4.07;;;;;;;14.88;35.83;100593.13;5071849;28;20045;-65
2023/03/19 02:27:43;;;;;;;;;;;;;;;15.06;35.68;100595.44;5072206;28;20055;-65
2023/03/19 02:30:23;;;;;;;6.30;4.05;;;;;;;15.17;35.69;100595.50;5071757;28;20288;-64
2023/03/19 02:32:51;;;;;;;6.57;4.05;;;;;;;15.29;35.43;100589.19;5071719;28;20128;-64
2023/03/19 02:35:19;;;;;;;6.30;4.20;;;;;;;15.42;35.46;100590.00;5071707;28;20451;-65
2023/03/19 02:37:47;;;;;;;6.35;4.18;;;;;;;15.52;35.29;100592.84;5071732;28;20135;-65
2023/03/19 02:40:21;;;;;;;5.70;4.00;;;;;;;15.62;35.31;100583.13;5071345;28;20056;-65
2023/03/19 02:42:52;;;;;;;5.90;3.90;;;;;;;15.71;35.17;100587.81;5072362;28;20106;-65
2023/03/19 02:45:20;;;;;;;6.68;4.40;;;;;;;15.80;35.13;100591.66;5071779;28;20425;-65
2023/03/19 02:47:48;;;;;;;5.97;4.05;;;;;;;15.90;34.96;100589.97;5071674;28;20110;-65
2023/03/19 02:50:16;;;;;;;6.78;4.15;;;;;;;15.99;34.93;100585.72;5071480;28;20486;-65
2023/03/19 02:52:45;;;;;;;6.78;4.45;;;;;;;16.15;34.89;100586.25;5071483;28;20051;-65
2023/03/19 02:55:13;;;;;;;6.05;4.30;;;;;;;16.25;34.77;100584.53;5071675;28;20041;-65
2023/03/19 02:57:41;;;;;;;6.10;4.20;;;;;;;16.35;34.65;100584.66;5071386;28;20040;-64
2023/03/19 03:00:12;;;;;;;5.25;3.70;;;;;;;16.45;34.56;100582.97;5071532;28;20045;-65
2023/03/19 03:02:40;;;;;;;7.03;4.20;;;;;;;16.51;34.57;100574.41;5071490;28;20074;-65
2023/03/19 03:05:09;;;;;;;5.60;4.07;;;;;;;16.59;34.45;100580.00;5071538;28;20048;-65
2023/03/19 03:07:39;;;;;;;5.97;4.03;;;;;;;16.64;34.40;100582.34;5071447;28;20048;-63
2023/03/19 03:10:08;;;;;;;5.90;3.92;;;;;;;16.69;34.35;100587.38;5071702;28;20140;-65
2023/03/19 03:12:39;;;;;;;6.25;4.15;;;;;;;16.70;34.37;100583.75;5071408;28;20072;-64
2023/03/19 03:15:08;;;;;;;5.80;3.97;;;;;;;16.71;34.37;100590.84;5071396;28;20044;-64
2023/03/19 03:17:39;;;;;;;5.63;3.97;;;;;;;16.76;34.14;100594.00;5071460;28;20052;-65
2023/03/19 03:20:10;;;;;;;6.75;4.28;;;;;;;16.78;34.29;100592.88;5071217;28;20078;-66
2023/03/19 03:22:38;;;;;;;5.85;4.07;;;;;;;16.82;34.34;100582.75;5071414;28;20102;-65
2023/03/19 03:25:08;;;;;;;5.78;3.97;;;;;;;16.85;34.33;100579.78;5071384;28;20375;-64
2023/03/19 03:27:36;;;;;;;5.93;4.43;;;;;;;16.94;34.22;100584.44;5071461;28;20072;-65
2023/03/19 03:30:06;;;;;;;6.20;4.07;;;;;;;16.97;34.08;100584.19;5073616;28;20559;-65
2023/03/19 03:32:35;;;;;;;6.00;4.22;;;;;;;17.05;34.09;100587.09;5074933;28;20040;-66
2023/03/19 03:35:07;;;;;;;5.60;3.88;;;;;;;17.12;34.20;100593.72;5074913;28;20048;-65
2023/03/19 03:37:36;;;;;;;6.45;4.35;;;;;;;17.15;34.06;100582.66;5074956;28;20105;-65
2023/03/19 03:40:07;;;;;;;6.95;4.13;;;;;;;17.22;33.96;100574.94;5074771;28;20436;-65
2023/03/19 03:42:36;;;;;;;7.03;4.20;;;;;;;17.28;33.82;100576.28;5074881;28;20069;-65
2023/03/19 03:45:05;;;;;;;6.05;4.13;;;;;;;17.35;33.85;100588.25;5074578;28;20041;-65
2023/03/19 03:47:33;;;;;;;5.95;4.50;;;;;;;17.41;33.86;100588.59;5074708;28;20623;-64
2023/03/19 03:50:03;;;;;;;5.72;4.20;;;;;;;17.48;33.88;100583.56;5074711;28;20064;-64
2023/03/19 03:52:33;;;;;;;6.38;4.35;;;;;;;17.56;33.62;100589.16;5074508;28;20044;-64
2023/03/19 03:55:02;;;;;;;5.40;3.90;;;;;;;17.63;33.87;100581.41;5074565;28;20045;-63
2023/03/19 03:57:30;;;;;;;6.22;4.43;;;;;;;17.70;33.56;100582.63;5074463;28;20448;-63
2023/03/19 03:59:58;;;;;;;6.22;4.13;;;;;;;17.77;33.62;100588.38;5107045;28;20059;-64
2023/03/19 04:02:27;;;;;;;6.20;4.07;;;;;;;17.78;33.59;100587.38;5074372;28;20059;-64
2023/03/19 04:04:55;;;;;;;6.18;4.03;;;;;;;17.80;33.63;100588.09;5074282;28;20040;-65
2023/03/19 04:07:23;;;;;;;6.85;4.20;;;;;;;17.79;33.55;100581.00;5074301;28;20543;-64
2023/03/19 04:09:52;;;;;;;5.85;4.32;;;;;;;17.77;33.57;100583.84;5074159;28;20044;-64
2023/03/19 04:12:21;;;;;;;5.95;3.97;;;;;;;17.75;33.43;100591.19;5074129;28;20072;-64
2023/03/19 04:14:49;;;;;;;6.45;4.28;;;;;;;17.70;33.58;100591.59;5074145;28;20455;-64
2023/03/19 04:17:18;;;;;;;6.10;4.38;;;;;;;17.65;33.86;100585.69;5074394;28;20040;-65
2023/03/19 04:19:46;;;;;;;5.60;3.80;;;;;;;17.61;33.57;100588.78;5074109;28;20048;-64
2023/03/19 04:22:14;;;;;;;6.13;4.00;;;;;;;17.57;33.72;100588.19;5073984;28;20076;-64
2023/03/19 04:24:42;;;;;;;6.32;4.20;;;;;;;17.51;33.66;100588.69;5073964;28;20468;-64
2023/03/19 04:27:13;;;;;;;6.25;4.32;;;;;;;17.44;33.74;100576.69;5073938;28;20158;-64
2023/03/19 04:29:41;;;;;;;6.20;4.32;;;;;;;17.40;33.76;100575.25;5073848;28;20097;-64
2023/03/19 04:32:09;;;;;;;5.95;4.38;;;;;;;17.34;33.79;100578.44;5073820;28;20048;-64
2023/03/19 04:34:37;;;;;;;6.63;4.30;;;;;;;17.28;33.87;100574.44;5073852;28;20076;-63
2023/03/19 04:37:06;;;;;;;6.45;4.20;;;;;;;17.23;33.79;100573.09;5073638;28;20425;-64
2023/03/19 04:39:34;;;;;;;6.00;4.20;;;;;;;17.15;33.87;100566.50;5073292;28;20406;-64
2023/03/19 04:42:03;;;;;;;6.10;4.18;;;;;;;17.09;33.89;100560.78;5073549;28;20063;-65
2023/03/19 04:44:36;;;;;;;6.95;4.50;;;;;;;17.05;34.04;100567.38;5073757;28;20052;-66
2023/03/19 04:47:04;;;;;;;;;;;;;;;16.99;33.99;100566.06;5074071;28;20056;-65
2023/03/19 04:49:32;;;;;;;6.03;4.38;;;;;;;16.94;33.98;100573.66;5073406;28;19932;-65
2023/03/19 04:52:00;;;;;;;6.53;4.32;;;;;;;16.88;33.92;100579.53;5073286;28;20127;-65
2023/03/19 04:54:28;;;;;;;5.97;4.28;;;;;;;16.82;33.96;100574.66;5073385;28;20050;-65
2023/03/19 04:56:56;;;;;;;6.53;4.18;;;;;;;16.75;34.12;100568.06;5073303;28;20048;-65
2023/03/19 04:59:25;;;;;;;6.53;4.53;;;;;;;16.68;34.11;100574.88;5073401;28;20193;-65
2023/03/19 05:01:54;;;;;;;6.40;4.20;;;;;;;16.63;34.17;100585.19;5073160;28;20110;-66
2023/03/19 05:04:23;;;;;;;6.18;4.35;;;;;;;16.56;34.14;100591.03;5073168;28;20549;-65
2023/03/19 05:06:52;;;;;;;6.60;4.35;;;;;;;16.50;34.11;100590.66;5073063;28;20044;-65
2023/03/19 05:09:20;;;;;;;6.15;4.22;;;;;;;16.47;34.33;100596.28;5073007;28;20066;-65
2023/03/19 05:11:48;;;;;;;7.03;4.57;;;;;;;16.42;34.42;100593.13;5073108;28;20068;-65
2023/03/19 05:14:17;;;;;;;6.47;4.53;;;;;;;16.36;34.26;100589.06;5072973;28;20553;-66
2023/03/19 05:16:45;;;;;;;6.22;4.32;;;;;;;16.33;34.11;100596.53;5072775;28;20078;-65
2023/03/19 05:19:14;;;;;;;6.35;4.55;;;;;;;16.27;34.28;100597.88;5072782;28;20501;-65
2023/03/19 05:21:43;;;;;;;6.40;4.47;;;;;;;16.22;34.04;100597.38;5072939;28;20044;-66
2023/03/19 05:24:11;;;;;;;6.80;4.85;;;;;;;16.18;34.07;100602.13;5072872;28;20485;-64
2023/03/19 05:26:39;;;;;;;6.78;4.53;;;;;;;16.15;34.22;100601.53;5073001;28;20077;-63
2023/03/19 05:29:09;;;;;;;6.45;4.55;;;;;;;16.10;34.17;100598.31;5072679;28;20048;-64
2023/03/19 05:31:38;;;;;;;6.50;4.45;;;;;;;16.06;34.16;100603.09;5072646;28;20106;-64
2023/03/19 05:34:06;;;;;;;6.88;4.75;;;;;;;16.00;34.27;100599.03;5072589;28;20040;-65
2023/03/19 05:36:36;;;;;;;6.65;4.57;;;;;;;15.98;34.28;100603.69;5072615;28;20460;-66
2023/03/19 05:39:07;;;;;;;6.72;4.43;;;;;;;15.95;34.27;100609.31;5072361;28;20119;-65
2023/03/19 05:41:38;;;;;;;7.55;4.80;;;;;;;15.91;34.29;100610.50;5072524;28;20044;-64
2023/03/19 05:44:07;;;;;;;7.03;4.63;;;;;;;15.89;34.24;100612.47;5072371;28;20049;-65
2023/03/19 05:46:35;;;;;;;6.07;4.40;;;;;;;15.82;34.42;100611.19;5072256;28;20127;-65
2023/03/19 05:49:03;;;;;;;7.13;5.05;;;;;;;15.80;34.34;100615.84;5072194;28;20051;-65
2023/03/19 05:51:31;;;;;;;6.45;4.32;;;;;;;15.78;34.32;100625.03;5072624;28;20076;-64
2023/03/19 05:54:01;;;;;;;7.22;5.05;;;;;;;15.73;34.40;100618.16;5072702;28;20086;-64
2023/03/19 05:56:30;;;;;;;6.80;4.28;;;;;;;15.70;34.45;100622.91;5072261;28;20048;-64
2023/03/19 05:58:58;;;;;;;6.68;4.50;;;;;;;15.67;34.48;100621.31;5071214;28;20048;-64
2023/03/19 06:01:26;;;;;;;6.18;4.60;;;;;;;15.63;34.61;100616.25;5075545;28;20458;-65
2023/03/19 06:03:54;;;;;;;7.75;5.00;;;;;;;15.60;34.56;100613.78;5078082;28;20040;-65
2023/03/19 06:06:23;;;;;;;6.28;4.50;;;;;;;15.57;34.66;100617.56;5080696;28;20052;-66
2023/03/19 06:08:51;;;;;;;6.53;4.70;;;;;;;15.55;34.55;100613.28;5077240;28;20052;-66
2023/03/19 06:11:21;;;;;;;7.45;5.15;;;;;;;15.52;34.63;100624.25;5072016;28;20055;-64
2023/03/19 06:13:49;;;;;;;8.20;5.40;;;;;;;15.50;34.72;100621.69;5072220;28;20048;-64
2023/03/19 06:16:17;;;;;;;6.25;4.55;;;;;;;15.47;34.64;100627.28;5072330;28;20135;-65
2023/03/19 06:18:46;;;;;;;7.78;5.45;;;;;;;15.45;34.74;100632.78;5071849;28;20051;-65
2023/03/19 06:21:14;;;;;;;7.43;4.88;;;;;;;15.43;34.80;100634.72;5072014;28;20044;-66
2023/03/19 06:23:42;;;;;;;7.00;4.80;;;;;;;15.43;34.79;100632.03;5071987;28;20040;-66
2023/03/19 06:26:10;;;;;;;6.90;5.00;;;;;;;15.46;34.58;100629.13;5071937;28;20477;-64
2023/03/19 06:28:40;;;;;;;8.15;5.10;;;;;;;15.52;34.74;100633.16;5071821;28;20052;-64
2023/03/19 06:31:08;;;;;;;6.60;4.80;;;;;;;15.63;34.88;100627.00;5071721;28;20103;-65
2023/03/19 06:33:36;;;;;;;6.57;4.45;;;;;;;15.70;34.77;100630.97;5071928;28;20052;-64
2023/03/19 06:36:06;;;;;;;7.53;4.60;;;;;;;15.82;34.75;100627.34;5071881;28;20120;-66
2023/03/19 06:38:37;;;;;;;7.05;4.55;;;;;;;15.91;34.54;100632.03;5071739;28;20068;-65
2023/03/19 06:41:05;;;;;;;7.03;4.70;;;;;;;16.00;34.60;100642.09;5071482;28;20386;-64
2023/03/19 06:43:35;;;;;;;7.28;4.65;;;;;;;16.12;34.45;100642.16;5071677;28;20428;-64
2023/03/19 06:46:05;;;;;;;7.10;4.90;;;;;;;16.24;34.48;100649.25;5071641;28;20054;-63
2023/03/19 06:48:37;;;;;;;6.70;4.28;;;;;;;16.33;34.34;100653.94;5071675;28;20078;-64
2023/03/19 06:51:06;;;;;;;7.18;4.53;;;;;;;16.44;34.23;100656.63;5071361;28;20063;-64
2023/03/19 06:53:35;;;;;;;7.35;4.53;;;;;;;16.55;34.16;100658.50;5071457;28;20048;-65
2023/03/19 06:56:03;;;;;;;6.45;4.43;;;;;;;16.63;34.08;100656.06;5071541;28;20047;-64
2023/03/19 06:58:31;;;;;;;6.20;4.38;;;;;;;16.67;34.03;100652.13;5071386;28;20120;-64
2023/03/19 07:01:00;;;;;;;6.53;4.40;;;;;;;16.73;33.93;100653.53;5071593;28;20044;-65
2023/03/19 07:03:30;;;;;;;6.32;4.40;;;;;;;16.75;33.79;100648.84;5071428;28;20120;-65
2023/03/19 07:05:58;;;;;;;6.72;4.50;;;;;;;16.73;34.01;100645.44;5075464;28;20557;-66
2023/03/19 07:08:28;;;;;;;6.90;4.50;;;;;;;16.75;33.97;100643.47;5075412;28;20040;-64
2023/03/19 07:10:57;;;;;;;6.50;4.57;;;;;;;16.73;33.76;100645.44;5075132;28;20504;-66
2023/03/19 07:13:25;;;;;;;6.95;4.18;;;;;;;16.73;34.01;100645.44;5075294;28;20389;-66
2023/03/19 07:15:53;;;;;;;5.95;3.95;;;;;;;16.71;34.00;100644.72;5075366;28;20040;-65
2023/03/19 07:18:22;;;;;;;7.25;4.28;;;;;;;16.67;34.01;100635.09;5075142;28;20075;-65
2023/03/19 07:20:52;;;;;;;6.03;4.05;;;;;;;16.65;34.07;100637.94;5075123;28;20051;-67
2023/03/19 07:23:21;;;;;;;6.85;3.97;;;;;;;16.62;34.17;100638.19;5075225;28;20432;-66
2023/03/19 07:25:49;;;;;;;5.93;3.92;;;;;;;16.61;34.22;100633.78;5075341;28;20055;-64
2023/03/19 07:28:18;;;;;;;5.78;3.80;;;;;;;16.58;34.21;100632.16;5074973;28;20056;-65
2023/03/19 07:30:46;;;;;;;6.30;4.10;;;;;;;16.55;34.13;100629.72;5074882;28;20045;-66
2023/03/19 07:33:14;;;;;;;7.22;4.35;;;;;;;16.53;34.10;100631.69;5074979;28;20044;-65
2023/03/19 07:35:42;;;;;;;7.55;4.13;;;;;;;16.48;34.12;100617.72;5075072;28;20047;-66
2023/03/19 07:38:13;;;;;;;6.10;4.13;;;;;;;16.46;34.14;100633.13;5075299;28;20044;-65
2023/03/19 07:40:41;;;;;;;5.43;4.00;;;;;;;16.45;34.21;100646.72;5074665;28;20048;-66
2023/03/19 07:43:26;;;;;;;5.85;3.90;;;;;;;16.40;34.17;100641.69;5074584;28;20045;-66
2023/03/19 07:45:54;;;;;;;6.30;3.95;;;;;;;16.39;34.23;100645.34;5074601;28;20048;-65
2023/03/19 07:48:23;;;;;;;5.75;3.78;;;;;;;16.37;34.20;100641.06;5074738;28;20398;-65
2023/03/19 07:50:54;;;;;;;5.72;3.78;;;;;;;16.34;34.27;100639.50;5074482;28;20083;-65
2023/03/19 07:53:24;;;;;;;6.05;3.97;;;;;;;16.30;34.33;100633.47;5074409;28;20092;-65
2023/03/19 07:55:52;;;;;;;5.68;4.03;;;;;;;16.27;34.38;100624.78;5074315;28;20044;-65
2023/03/19 07:58:20;;;;;;;5.95;3.97;;;;;;;16.26;34.30;100637.38;5074518;28;20072;-65
2023/03/19 08:00:49;;;;;;;5.75;3.70;;;;;;;16.24;34.38;100638.50;5074457;28;20072;-65
2023/03/19 08:03:17;;;;;;;4.90;3.50;;;;;;;16.21;34.40;100638.72;5074220;28;20044;-64
2023/03/19 08:05:48;;;;;;;5.97;3.75;;;;;;;16.17;34.50;100632.72;5074275;28;20044;-65
2023/03/19 08:08:18;;;;;;;5.05;3.38;;;;;;;16.16;34.37;100636.38;5074305;28;20056;-65
2023/03/19 08:10:49;;;;;;;6.53;3.72;;;;;;;16.13;34.31;100625.03;5074099;28;20055;-64
2023/03/19 08:13:18;;;;;;;5.97;3.80;;;;;;;16.10;34.46;100619.84;5074085;28;20048;-66
2023/03/19 08:15:46;;;;;;;5.75;3.28;;;;;;;16.08;34.39;100622.66;5073785;28;20131;-66
2023/03/19 08:18:17;;;;;;;5.40;3.53;;;;;;;16.07;34.29;100612.88;5074350;28;20075;-65
2023/03/19 08:20:45;;;;;;;5.80;3.50;;;;;;;16.05;34.42;100619.38;5074514;28;20482;-65
2023/03/19 08:23:14;;;;;;;7.00;3.55;;;;;;;16.01;34.44;100611.50;5074457;28;20114;-66
2023/03/19 08:25:42;;;;;;;5.00;3.10;;;;;;;16.01;34.46;100611.50;5075012;28;20048;-66
2023/03/19 08:28:12;;;;;;;5.10;3.55;;;;;;;15.98;34.53;100610.91;5074831;28;20489;-66
2023/03/19 08:30:40;;;;;;;5.82;3.63;;;;;;;15.98;34.47;100627.91;5074082;28;20466;-66
2023/03/19 08:33:09;;;;;;;4.40;3.00;;;;;;;15.96;34.44;100621.78;5074293;28;20051;-66
2023/03/19 08:35:37;;;;;;;5.45;3.50;;;;;;;15.95;34.53;100620.06;5074600;28;20047;-66
2023/03/19 08:38:05;;;;;;;5.65;3.20;;;;;;;15.93;34.56;100624.72;5074325;28;20098;-67
2023/03/19 08:40:34;;;;;;;5.78;3.33;;;;;;;15.93;34.57;100632.78;5074466;28;20406;-65
2023/03/19 08:43:03;;;;;;;4.72;3.22;;;;;;;15.92;34.56;100630.19;5075020;28;20120;-67
2023/03/19 08:45:32;;;;;;;5.43;3.45;;;;;;;15.89;34.51;100625.06;5073868;28;20059;-66
2023/03/19 08:48:01;;;;;;;5.30;3.47;;;;;;;15.89;34.68;100620.53;5075029;28;20049;-65
2023/03/19 08:50:29;;;;;;;4.90;3.25;;;;;;;15.88;34.67;100626.88;5075925;28;20127;-67
2023/03/19 08:52:57;;;;;;;5.53;3.50;;;;;;;15.87;34.68;100624.31;5073301;28;20562;-67
2023/03/19 08:55:25;;;;;;;5.20;3.30;;;;;;;15.86;34.74;100623.47;5075192;28;20044;-65
2023/03/19 08:57:54;;;;;;;6.05;3.42;;;;;;;15.85;34.76;100621.75;5074921;28;20405;-66
2023/03/19 09:00:22;;;;;;;5.88;3.42;;;;;;;15.87;34.74;100618.94;5075177;28;20516;-66
2023/03/19 09:02:52;;;;;;;5.25;3.50;;;;;;;15.90;34.84;100608.78;5074392;28;20478;-66
2023/03/19 09:05:22;;;;;;;5.00;3.10;;;;;;;15.97;34.96;100607.34;5074342;28;20044;-68
2023/03/19 09:07:52;;;;;;;5.00;3.50;;;;;;;16.08;34.95;100605.66;5073977;28;20044;-66
2023/03/19 09:10:20;;;;;;;6.35;3.40;;;;;;;16.22;34.75;100608.16;5074138;28;20083;-64
2023/03/19 09:12:48;;;;;;;5.10;3.10;;;;;;;16.34;34.70;100612.56;5073260;28;20140;-66
2023/03/19 09:15:16;;;;;;;5.25;3.17;;;;;;;16.47;34.55;100601.69;5073159;28;20041;-68
2023/03/19 09:17:46;;;;;;;5.10;3.38;;;;;;;16.58;34.72;100599.84;5073025;28;20045;-65
2023/03/19 09:20:16;;;;;;;5.05;3.20;;;;;;;16.72;34.43;100600.63;5073113;28;20109;-65
2023/03/19 09:22:45;;;;;;;5.30;3.17;;;;;;;16.83;34.48;100603.31;5072768;28;20040;-66
2023/03/19 09:25:13;;;;;;;6.85;2.90;;;;;;;16.96;34.32;100598.63;5073042;28;20044;-66
2023/03/19 09:27:42;;;;;;;5.82;3.30;;;;;;;17.09;34.21;100598.50;5069364;28;20551;-65
2023/03/19 09:30:12;;;;;;;4.72;2.95;;;;;;;17.21;34.18;100604.72;5074131;28;20050;-66
2023/03/19 09:32:40;;;;;;;4.78;3.05;;;;;;;17.32;34.07;100596.59;5078829;28;20067;-69
2023/03/19 09:35:09;;;;;;;5.32;3.30;;;;;;;17.44;34.11;100598.28;5073530;28;20066;-67
2023/03/19 09:37:39;;;;;;;4.95;3.03;;;;;;;17.55;34.11;100587.44;5072469;28;20051;-67
2023/03/19 09:40:17;;;;;;;4.57;2.70;;;;;;;17.68;33.98;100590.84;5072230;28;20048;-66
2023/03/19 09:42:55;;;;;;;4.47;2.78;;;;;;;17.82;34.06;100581.59;5071938;28;20041;-67
2023/03/19 09:45:24;;;;;;;5.82;3.30;;;;;;;17.94;33.75;100579.69;5075625;28;20090;-66
2023/03/19 09:47:58;;;;;;;4.90;2.90;;;;;;;18.09;33.85;100583.78;5072475;28;20067;-69
2023/03/19 09:50:28;;;;;;;5.82;3.30;;;;;;;18.22;33.60;100591.66;5072059;28;20044;-67
2023/03/19 09:53:05;;;;;;;4.22;2.83;;;;;;;18.36;34.13;100576.97;5072215;28;20057;-64
2023/03/19 09:55:41;;;;;;;7.05;3.15;;;;;;;18.48;34.81;100568.63;5072140;28;20128;-63
2023/03/19 09:58:17;;;;;;;5.93;3.05;;;;;;;18.60;34.75;100566.69;5071830;28;20083;-65
2023/03/19 10:00:49;;;;;;;5.15;2.90;;;;;;;18.68;34.87;100580.41;5072095;28;20041;-65
2023/03/19 10:03:43;;;;;;;5.70;2.90;;;;;;;18.75;35.10;100569.91;5072082;28;20045;-65
2023/03/19 10:06:18;;;;;;;;;;;;;;;18.80;35.08;100579.31;5072639;28;20264;-63
2023/03/19 10:09:02;;;;;;;7.70;3.28;;;;;;;18.86;34.91;100565.25;5072016;28;20293;-65
2023/03/19 10:11:42;;;;;;;6.82;3.30;;;;;;;18.90;34.79;100563.13;5071959;28;20044;-65
2023/03/19 10:14:29;;;;;;;6.57;3.22;;;;;;;18.98;35.47;100573.25;5071973;28;20466;-63
2023/03/19 10:17:01;;;;;;;8.27;3.33;;;;;;;19.00;35.34;100564.00;5072012;28;20128;-65
2023/03/19 10:19:39;;;;;;;8.75;3.40;;;;;;;19.11;35.42;100554.94;5071945;28;20044;-64
2023/03/19 10:22:15;;;;;;;5.43;3.15;;;;;;;19.21;35.13;100555.81;5071748;28;20044;-64
2023/03/19 10:24:46;;;;;;;6.07;3.20;;;;;;;19.28;35.27;100556.94;5071838;28;20113;-65
2023/03/19 10:27:17;;;;;;;6.32;2.97;;;;;;;19.32;35.36;100554.81;5071791;28;20459;-64
2023/03/19 10:29:45;;;;;;;6.35;3.33;;;;;;;19.37;35.14;100549.81;5071775;28;20044;-64
2023/03/19 10:32:18;;;;;;;5.80;3.17;;;;;;;19.37;35.29;100545.25;5071725;28;20040;-63
2023/03/19 10:34:49;;;;;;;9.07;3.47;;;;;;;19.40;35.34;100549.56;5071732;28;20049;-65
2023/03/19 10:37:19;;;;;;;7.10;3.00;;;;;;;19.40;35.80;100545.00;5071727;28;20044;-64
2023/03/19 10:39:51;;;;;;;10.45;3.08;;;;;;;19.42;35.79;100537.59;5071334;28;20106;-65
2023/03/19 10:42:36;;;;;;;5.47;3.10;;;;;;;19.44;35.81;100532.88;5071553;28;20040;-65
2023/03/19 10:45:15;;;;;;;7.10;3.15;;;;;;;19.45;35.43;100533.75;5071982;28;20052;-65
2023/03/19 10:47:43;;;;;;;6.70;3.13;;;;;;;19.47;35.55;100539.00;5071374;28;20559;-64
2023/03/19 10:50:15;;;;;;;5.43;3.03;;;;;;;19.47;35.77;100517.38;5071648;28;20440;-65
2023/03/19 10:52:45;;;;;;;6.50;3.25;;;;;;;19.51;35.53;100516.94;5071120;28;20048;-65
2023/03/19 10:55:19;;;;;;;5.68;3.03;;;;;;;19.50;35.68;100508.97;5070346;28;20548;-65
2023/03/19 10:57:51;;;;;;;6.43;2.92;;;;;;;19.50;35.78;100511.69;5070516;28;20090;-66
2023/03/19 11:00:23;;;;;;;7.75;3.20;;;;;;;19.51;35.85;100505.28;5071167;28;20686;-64
2023/03/19 11:02:53;;;;;;;6.70;3.30;;;;;;;19.50;35.83;100496.31;5070974;28;20063;-64
2023/03/19 11:05:27;;;;;;;6.07;3.13;;;;;;;19.51;35.57;100502.56;5063317;28;20148;-65
2023/03/19 11:08:01;;;;;;;7.88;3.28;;;;;;;19.51;35.61;100495.31;5070541;28;20048;-65
2023/03/19 11:10:33;;;;;;;6.10;3.03;;;;;;;19.55;35.54;100493.16;5070859;28;20067;-65
2023/03/19 11:13:05;;;;;;;6.90;2.87;;;;;;;19.56;35.95;100492.19;5070580;28;20056;-65
2023/03/19 11:15:36;;;;;;;5.70;3.38;;;;;;;19.56;35.60;100484.06;5070823;28;20041;-66
2023/03/19 11:18:16;;;;;;;7.38;3.35;;;;;;;19.58;35.86;100480.22;5070384;28;20054;-65
2023/03/19 11:20:50;;;;;;;5.78;2.88;;;;;;;19.61;35.64;100479.09;5070602;28;20054;-65
2023/03/19 11:23:20;;;;;;;6.43;2.85;;;;;;;19.61;35.85;100470.97;5071028;28;20048;-65
2023/03/19 11:25:51;;;;;;;8.32;3.15;;;;;;;19.61;36.28;100460.16;5071102;28;20049;-66
2023/03/19 11:28:21;;;;;;;5.72;3.08;;;;;;;19.64;36.11;100459.84;5070933;28;20541;-66
2023/03/19 11:30:59;;;;;;;6.53;3.20;;;;;;;19.66;36.12;100452.44;5070849;28;20040;-66
2023/03/19 11:33:46;;;;;;;6.20;3.08;;;;;;;19.67;36.32;100448.72;5070775;28;20056;-66
2023/03/19 11:36:22;;;;;;;5.65;3.03;;;;;;;19.69;35.96;100452.16;5071912;28;20048;-67
2023/03/19 11:39:18;;;;;;;6.72;3.55;;;;;;;19.70;35.99;100451.16;5071139;28;20497;-69